createdAt,value
2023-05-15T00:01:25.734Z,11.57
2023-05-15T00:03:55.012Z,11.10
2023-05-15T00:06:23.212Z,10.33
2023-05-15T00:08:51.181Z,10.80
2023-05-15T00:11:19.101Z,11.73
2023-05-15T00:13:47.052Z,11.43
2023-05-15T00:16:16.628Z,12.10
2023-05-15T00:18:44.706Z,11.90
2023-05-15T00:21:12.777Z,11.53
2023-05-15T00:23:40.698Z,10.80
2023-05-15T00:26:08.758Z,11.57
2023-05-15T00:28:36.787Z,11.87
2023-05-15T00:31:04.974Z,11.50
2023-05-15T00:33:35.508Z,11.10
2023-05-15T00:36:04.785Z,10.70
2023-05-15T00:38:33.543Z,10.70
2023-05-15T00:41:02.612Z,10.17
2023-05-15T00:43:31.962Z,11.30
2023-05-15T00:46:00.828Z,10.60
2023-05-15T00:48:30.178Z,10.13
2023-05-15T00:51:00.686Z,10.73
2023-05-15T00:53:29.035Z,11.50
2023-05-15T00:55:59.444Z,11.10
2023-05-15T00:58:28.639Z,10.90
2023-05-15T01:00:57.062Z,11.00
2023-05-15T01:03:25.358Z,11.40
2023-05-15T01:05:53.427Z,10.00
2023-05-15T01:08:27.926Z,11.27
2023-05-15T01:11:00.981Z,11.17
2023-05-15T01:13:28.965Z,11.00
2023-05-15T01:15:57.282Z,11.03
2023-05-15T01:18:26.054Z,10.97
2023-05-15T01:21:11.988Z,10.50
2023-05-15T01:23:59.504Z,11.57
2023-05-15T01:26:57.483Z,9.90
2023-05-15T01:29:33.644Z,9.73
2023-05-15T01:32:05.540Z,10.00
2023-05-15T01:34:39.912Z,9.47
2023-05-15T01:37:09.826Z,11.27
2023-05-15T01:39:41.602Z,11.30
2023-05-15T01:42:11.721Z,11.10
2023-05-15T01:44:45.811Z,11.60
2023-05-15T01:47:15.904Z,10.97
2023-05-15T01:49:45.918Z,12.70
2023-05-15T01:52:19.846Z,10.50
2023-05-15T01:54:48.899Z,13.07
2023-05-15T01:57:18.097Z,11.87
2023-05-15T01:59:47.864Z,12.50
2023-05-15T02:02:16.861Z,13.53
2023-05-15T02:04:46.310Z,11.97
2023-05-15T02:07:15.690Z,12.63
2023-05-15T02:09:44.221Z,11.63
2023-05-15T02:12:12.808Z,12.97
2023-05-15T02:14:42.296Z,13.17
2023-05-15T02:17:11.749Z,11.80
2023-05-15T02:19:39.873Z,12.73
2023-05-15T02:22:07.828Z,13.27
2023-05-15T02:24:35.794Z,12.20
2023-05-15T02:27:10.225Z,11.80
2023-05-15T02:29:49.411Z,12.53
2023-05-15T02:32:26.577Z,12.20
2023-05-15T02:35:04.828Z,12.00
2023-05-15T02:37:36.756Z,13.20
2023-05-15T02:40:06.989Z,13.03
2023-05-15T02:42:37.146Z,12.87
2023-05-15T02:45:06.867Z,12.40
2023-05-15T02:47:37.212Z,12.63
2023-05-15T02:50:06.454Z,12.93
2023-05-15T02:52:35.173Z,13.03
2023-05-15T02:55:03.268Z,13.37
2023-05-15T02:57:31.352Z,13.57
2023-05-15T03:00:02.200Z,12.83
2023-05-15T03:02:30.232Z,13.10
2023-05-15T03:04:59.635Z,13.87
2023-05-15T03:07:27.959Z,12.93
2023-05-15T03:09:55.885Z,13.40
2023-05-15T03:12:23.885Z,13.20
2023-05-15T03:14:51.866Z,12.00
2023-05-15T03:17:19.820Z,13.40
2023-05-15T03:19:47.765Z,13.20
2023-05-15T03:22:17.233Z,13.57
2023-05-15T03:24:45.312Z,13.80
2023-05-15T03:27:13.288Z,13.53
2023-05-15T03:29:41.237Z,12.80
2023-05-15T03:32:09.337Z,13.37
2023-05-15T03:34:38.732Z,13.03
2023-05-15T03:37:07.695Z,12.40
2023-05-15T03:39:37.249Z,12.73
2023-05-15T03:42:06.561Z,12.87
2023-05-15T03:44:34.958Z,13.97
2023-05-15T03:47:02.979Z,13.73
2023-05-15T03:49:30.916Z,13.97
2023-05-15T03:51:58.976Z,13.27
2023-05-15T03:54:27.028Z,14.43
2023-05-15T03:56:56.359Z,13.10
2023-05-15T03:59:25.493Z,13.07
2023-05-15T04:02:04.296Z,13.60
2023-05-15T04:04:33.612Z,13.37
2023-05-15T04:07:03.021Z,14.60
2023-05-15T04:09:31.000Z,12.47
2023-05-15T04:12:00.268Z,13.20
2023-05-15T04:14:28.206Z,14.57
2023-05-15T04:16:56.251Z,14.50
2023-05-15T04:19:24.187Z,12.73
2023-05-15T04:21:52.172Z,14.47
2023-05-15T04:24:20.112Z,14.07
2023-05-15T04:26:48.115Z,13.30
2023-05-15T04:29:17.520Z,13.90
2023-05-15T04:31:45.539Z,14.07
2023-05-15T04:34:13.514Z,13.30
2023-05-15T04:36:42.909Z,14.93
2023-05-15T04:39:11.160Z,15.00
2023-05-15T04:41:39.098Z,14.80
2023-05-15T04:44:07.413Z,17.47
2023-05-15T04:46:37.452Z,18.53
2023-05-15T04:49:06.629Z,17.30
2023-05-15T04:51:34.621Z,19.60
2023-05-15T04:54:02.704Z,16.60
2023-05-15T04:56:30.687Z,16.80
2023-05-15T04:58:58.662Z,18.57
2023-05-15T05:01:26.811Z,17.43
2023-05-15T05:03:56.232Z,17.50
2023-05-15T05:06:25.021Z,17.43
2023-05-15T05:08:56.060Z,16.53
2023-05-15T05:11:24.058Z,17.70
2023-05-15T05:13:53.426Z,18.33
2023-05-15T05:16:21.518Z,18.23
2023-05-15T05:18:50.568Z,18.53
2023-05-15T05:21:19.894Z,16.43
2023-05-15T05:23:47.943Z,17.67
2023-05-15T05:26:18.783Z,17.37
2023-05-15T05:28:46.804Z,18.77
2023-05-15T05:31:14.803Z,19.60
2023-05-15T05:33:42.798Z,17.70
2023-05-15T05:36:11.098Z,17.10
2023-05-15T05:38:40.396Z,16.07
2023-05-15T05:41:08.360Z,17.17
2023-05-15T05:43:36.466Z,18.53
2023-05-15T05:46:04.455Z,17.00
2023-05-15T05:48:32.400Z,17.90
2023-05-15T05:51:00.369Z,16.40
2023-05-15T05:53:28.330Z,15.37
2023-05-15T05:55:57.695Z,18.33
2023-05-15T05:58:26.454Z,17.97
2023-05-15T06:00:54.632Z,15.63
2023-05-15T06:03:24.026Z,16.87
2023-05-15T06:05:52.894Z,16.77
2023-05-15T06:08:21.012Z,17.00
2023-05-15T06:10:49.433Z,17.83
2023-05-15T06:13:18.976Z,14.50
2023-05-15T06:15:47.419Z,14.40
2023-05-15T06:18:15.637Z,15.10
2023-05-15T06:20:43.670Z,17.00
2023-05-15T06:23:11.717Z,14.77
2023-05-15T06:25:40.005Z,14.30
2023-05-15T06:28:08.007Z,15.50
2023-05-15T06:30:37.346Z,14.77
2023-05-15T06:33:05.419Z,15.77
2023-05-15T06:35:33.348Z,14.60
2023-05-15T06:38:01.928Z,15.63
2023-05-15T06:40:29.964Z,16.93
2023-05-15T06:42:58.704Z,16.43
2023-05-15T06:45:27.250Z,16.60
2023-05-15T06:47:59.217Z,16.07
2023-05-15T06:50:28.923Z,16.17
2023-05-15T06:52:56.945Z,17.17
2023-05-15T06:55:25.180Z,14.93
2023-05-15T06:57:53.461Z,15.90
2023-05-15T07:00:22.040Z,18.00
2023-05-15T07:02:50.013Z,17.23
2023-05-15T07:05:19.443Z,18.17
2023-05-15T07:07:47.414Z,16.37
2023-05-15T07:10:15.379Z,15.83
2023-05-15T07:12:43.381Z,15.17
2023-05-15T07:15:12.008Z,15.87
2023-05-15T07:17:40.107Z,16.60
2023-05-15T07:20:09.003Z,13.90
2023-05-15T07:22:41.728Z,14.60
2023-05-15T07:25:17.114Z,15.00
2023-05-15T07:27:45.296Z,14.70
2023-05-15T07:30:14.225Z,14.50
2023-05-15T07:32:42.300Z,16.40
2023-05-15T07:35:11.492Z,15.10
2023-05-15T07:37:41.337Z,15.10
2023-05-15T07:40:10.160Z,16.63
2023-05-15T07:42:39.640Z,16.40
2023-05-15T07:45:08.916Z,15.80
2023-05-15T07:47:37.021Z,16.17
2023-05-15T07:50:05.484Z,16.50
2023-05-15T07:52:33.438Z,15.80
2023-05-15T07:55:02.923Z,17.73
2023-05-15T07:57:31.868Z,16.20
2023-05-15T07:59:59.824Z,17.80
2023-05-15T08:02:28.060Z,16.27
2023-05-15T08:04:56.216Z,16.87
2023-05-15T08:07:24.250Z,17.47
2023-05-15T08:09:52.175Z,16.70
2023-05-15T08:12:22.932Z,15.67
2023-05-15T08:14:51.607Z,19.07
2023-05-15T08:17:20.744Z,15.80
2023-05-15T08:19:49.254Z,15.40
2023-05-15T08:22:17.493Z,15.87
2023-05-15T08:24:45.956Z,15.50
2023-05-15T08:27:13.967Z,16.37
2023-05-15T08:29:43.284Z,14.97
2023-05-15T08:32:11.491Z,16.93
2023-05-15T08:34:39.564Z,15.73
2023-05-15T08:37:07.714Z,16.13
2023-05-15T08:39:35.748Z,14.80
2023-05-15T08:42:20.041Z,15.43
2023-05-15T08:44:49.619Z,13.63
2023-05-15T08:47:18.650Z,12.87
2023-05-15T08:49:56.288Z,13.50
2023-05-15T08:52:24.862Z,13.27
2023-05-15T08:54:53.490Z,13.90
2023-05-15T08:57:21.967Z,13.00
2023-05-15T08:59:53.655Z,12.30
2023-05-15T09:02:22.383Z,13.37
2023-05-15T09:04:50.504Z,14.50
2023-05-15T09:07:18.744Z,14.47
2023-05-15T09:09:46.794Z,13.57
2023-05-15T09:12:16.902Z,11.97
2023-05-15T09:14:45.106Z,12.67
2023-05-15T09:17:14.561Z,11.47
2023-05-15T09:19:43.589Z,13.30
2023-05-15T09:22:17.766Z,13.80
2023-05-15T09:24:48.051Z,14.10
2023-05-15T09:27:16.155Z,13.63
2023-05-15T09:29:44.276Z,12.50
2023-05-15T09:32:14.876Z,12.30
2023-05-15T09:34:44.677Z,13.30
2023-05-15T09:37:31.148Z,11.50
2023-05-15T09:40:10.704Z,11.90
2023-05-15T09:42:39.082Z,12.00
2023-05-15T09:45:17.719Z,12.33
2023-05-15T09:47:47.357Z,13.40
2023-05-15T09:50:22.773Z,12.00
2023-05-15T09:52:51.639Z,12.23
2023-05-15T09:55:20.753Z,11.43
2023-05-15T09:58:06.255Z,11.27
2023-05-15T10:00:34.333Z,12.13
2023-05-15T10:03:05.033Z,11.93
2023-05-15T10:05:43.006Z,12.90
2023-05-15T10:08:12.654Z,12.17
2023-05-15T10:10:40.752Z,12.90
2023-05-15T10:13:09.992Z,13.10
2023-05-15T10:15:39.920Z,11.30
2023-05-15T10:18:09.929Z,11.50
2023-05-15T10:20:38.668Z,11.03
2023-05-15T10:23:07.470Z,10.60
2023-05-15T10:25:42.743Z,10.70
2023-05-15T10:28:11.961Z,11.80
2023-05-15T10:30:40.283Z,10.70
2023-05-15T10:33:09.780Z,9.30
2023-05-15T10:35:40.053Z,9.77
2023-05-15T10:38:09.254Z,8.53
2023-05-15T10:40:38.915Z,8.70
2023-05-15T10:43:07.486Z,9.37
2023-05-15T10:45:36.678Z,8.90
2023-05-15T10:48:07.703Z,8.53
2023-05-15T10:50:38.522Z,8.47
2023-05-15T10:53:06.710Z,8.43
2023-05-15T10:55:34.639Z,8.83
2023-05-15T10:58:02.670Z,9.20
2023-05-15T11:00:32.195Z,8.43
2023-05-15T11:03:01.070Z,8.70
2023-05-15T11:05:31.071Z,7.87
2023-05-15T11:08:28.622Z,9.03
2023-05-15T11:10:57.119Z,7.40
2023-05-15T11:13:25.310Z,7.73
2023-05-15T11:15:53.434Z,8.13
2023-05-15T11:18:21.883Z,6.80
2023-05-15T11:21:09.620Z,7.60
2023-05-15T11:23:42.789Z,9.20
2023-05-15T11:26:10.822Z,7.47
2023-05-15T11:28:45.716Z,6.30
2023-05-15T11:31:13.797Z,6.93
2023-05-15T11:33:42.206Z,6.40
2023-05-15T11:36:13.841Z,6.10
2023-05-15T11:38:44.262Z,6.30
2023-05-15T11:41:21.829Z,5.63
2023-05-15T11:43:51.208Z,5.93
2023-05-15T11:46:19.305Z,5.40
2023-05-15T11:48:48.730Z,6.20
2023-05-15T11:51:21.345Z,6.13
2023-05-15T11:53:52.316Z,5.33
2023-05-15T11:56:20.894Z,5.60
2023-05-15T11:58:52.692Z,6.53
2023-05-15T12:01:20.869Z,5.63
2023-05-15T12:03:50.017Z,6.43
2023-05-15T12:06:18.444Z,7.23
2023-05-15T12:08:53.409Z,6.53
2023-05-15T12:11:23.561Z,6.63
2023-05-15T12:13:52.685Z,6.33
2023-05-15T12:16:26.105Z,6.93
2023-05-15T12:18:54.656Z,6.43
2023-05-15T12:21:22.655Z,6.70
2023-05-15T12:24:07.202Z,7.40
2023-05-15T12:26:36.805Z,7.03
2023-05-15T12:29:05.209Z,7.50
2023-05-15T12:31:34.472Z,7.67
2023-05-15T12:34:02.633Z,7.20
2023-05-15T12:36:31.047Z,7.23
2023-05-15T12:39:06.712Z,9.93
2023-05-15T12:41:35.141Z,8.50
2023-05-15T12:44:03.369Z,8.57
2023-05-15T12:46:32.402Z,10.17
2023-05-15T12:49:01.036Z,8.80
2023-05-15T12:51:29.966Z,9.97
2023-05-15T12:53:58.859Z,7.87
2023-05-15T12:56:30.968Z,8.80
2023-05-15T12:58:58.987Z,6.93
2023-05-15T13:01:27.524Z,8.33
2023-05-15T13:03:55.804Z,8.60
2023-05-15T13:06:31.859Z,7.20
2023-05-15T13:09:06.511Z,7.60
2023-05-15T13:11:36.005Z,6.70
2023-05-15T13:14:10.873Z,7.33
2023-05-15T13:16:39.156Z,9.10
2023-05-15T13:19:09.590Z,9.33
2023-05-15T13:21:37.806Z,9.53
2023-05-15T13:24:09.911Z,11.40
2023-05-15T13:26:39.309Z,10.20
2023-05-15T13:29:07.320Z,9.87
2023-05-15T13:31:35.775Z,8.83
2023-05-15T13:34:03.803Z,10.50
2023-05-15T13:36:31.992Z,8.40
2023-05-15T13:38:59.948Z,9.47
2023-05-15T13:41:27.977Z,7.40
2023-05-15T13:43:57.323Z,8.87
2023-05-15T13:46:25.388Z,8.00
2023-05-15T13:48:53.380Z,8.37
2023-05-15T13:51:21.368Z,7.80
2023-05-15T13:53:49.553Z,7.83
2023-05-15T13:56:17.590Z,7.73
2023-05-15T13:58:45.713Z,8.47
2023-05-15T14:01:15.099Z,9.17
2023-05-15T14:03:43.114Z,8.03
2023-05-15T14:06:11.122Z,9.77
2023-05-15T14:08:39.147Z,9.03
2023-05-15T14:11:07.120Z,9.07
2023-05-15T14:13:35.492Z,8.00
2023-05-15T14:16:03.444Z,7.90
2023-05-15T14:18:32.934Z,9.53
2023-05-15T14:21:00.991Z,9.10
2023-05-15T14:23:28.904Z,9.47
2023-05-15T14:25:56.879Z,9.77
2023-05-15T14:28:24.873Z,9.67
2023-05-15T14:30:52.816Z,11.03
2023-05-15T14:33:20.865Z,9.93
2023-05-15T14:35:50.291Z,9.70
2023-05-15T14:38:18.802Z,10.40
2023-05-15T14:40:46.743Z,11.20
2023-05-15T14:43:14.699Z,10.87
2023-05-15T14:45:42.654Z,12.70
2023-05-15T14:48:11.662Z,12.47
2023-05-15T14:50:39.736Z,11.70
2023-05-15T14:53:09.093Z,12.50
2023-05-15T14:55:37.107Z,12.40
2023-05-15T14:58:05.133Z,12.40
2023-05-15T15:00:33.582Z,12.33
2023-05-15T15:03:02.569Z,11.77
2023-05-15T15:05:30.711Z,11.50
2023-05-15T15:08:01.528Z,10.80
2023-05-15T15:10:31.585Z,11.93
2023-05-15T15:12:59.785Z,13.37
2023-05-15T15:15:27.815Z,12.90
2023-05-15T15:17:57.214Z,11.77
2023-05-15T15:20:26.575Z,12.80
2023-05-15T15:22:55.574Z,14.53
2023-05-15T15:25:23.864Z,14.50
2023-05-15T15:27:53.613Z,13.30
2023-05-15T15:30:21.709Z,14.83
2023-05-15T15:32:49.669Z,14.93
2023-05-15T15:35:17.687Z,14.00
2023-05-15T15:37:45.723Z,14.40
2023-05-15T15:40:13.919Z,13.97
2023-05-15T15:42:42.087Z,13.23
2023-05-15T15:45:11.591Z,14.93
2023-05-15T15:47:39.632Z,11.90
2023-05-15T15:50:08.330Z,11.50
2023-05-15T15:52:36.325Z,11.67
2023-05-15T15:55:04.485Z,11.73
2023-05-15T15:57:34.015Z,10.80
2023-05-15T16:00:02.369Z,10.70
2023-05-15T16:02:34.488Z,10.17
2023-05-15T16:05:03.071Z,10.90
2023-05-15T16:07:31.076Z,10.67
2023-05-15T16:10:10.518Z,11.77
2023-05-15T16:12:39.992Z,9.90
2023-05-15T16:15:21.589Z,9.73
2023-05-15T16:17:54.727Z,12.17
2023-05-15T16:20:23.430Z,11.00
2023-05-15T16:22:51.642Z,13.83
2023-05-15T16:25:19.666Z,13.80
2023-05-15T16:27:47.653Z,13.50
2023-05-15T16:30:16.259Z,13.80
2023-05-15T16:32:44.519Z,13.20
2023-05-15T16:35:13.888Z,13.93
2023-05-15T16:37:41.889Z,14.53
2023-05-15T16:40:11.298Z,12.97
2023-05-15T16:42:41.457Z,14.30
2023-05-15T16:45:10.511Z,12.20
2023-05-15T16:47:39.412Z,11.47
2023-05-15T16:50:08.396Z,9.77
2023-05-15T16:52:38.982Z,10.70
2023-05-15T16:55:08.000Z,9.70
2023-05-15T16:57:36.117Z,9.60
2023-05-15T17:00:04.638Z,8.73
2023-05-15T17:02:32.639Z,9.93
2023-05-15T17:05:00.628Z,8.30
2023-05-15T17:07:28.641Z,6.97
2023-05-15T17:09:58.076Z,7.60
2023-05-15T17:12:26.042Z,7.43
2023-05-15T17:14:54.007Z,6.33
2023-05-15T17:17:23.148Z,6.50
2023-05-15T17:19:51.186Z,6.73
2023-05-15T17:22:19.284Z,6.57
2023-05-15T17:24:51.340Z,6.47
2023-05-15T17:27:21.510Z,6.57
2023-05-15T17:29:49.812Z,6.40
2023-05-15T17:32:18.377Z,6.87
2023-05-15T17:34:46.797Z,6.30
2023-05-15T17:37:15.387Z,5.57
2023-05-15T17:39:43.412Z,5.30
2023-05-15T17:42:11.423Z,5.93
2023-05-15T17:44:40.878Z,4.80
2023-05-15T17:47:10.020Z,5.03
2023-05-15T17:49:39.046Z,5.33
2023-05-15T17:52:07.512Z,4.20
2023-05-15T17:54:35.493Z,4.60
2023-05-15T17:57:03.541Z,4.53
2023-05-15T17:59:31.865Z,4.30
2023-05-15T18:02:02.432Z,4.90
2023-05-15T18:04:30.659Z,4.83
2023-05-15T18:07:02.140Z,4.40
2023-05-15T18:09:30.900Z,4.60
2023-05-15T18:11:59.029Z,4.67
2023-05-15T18:14:26.966Z,4.07
2023-05-15T18:16:56.507Z,4.93
2023-05-15T18:19:26.040Z,4.33
2023-05-15T18:21:54.007Z,4.43
2023-05-15T18:24:22.126Z,3.77
2023-05-15T18:26:50.732Z,3.40
2023-05-15T18:29:18.854Z,3.03
2023-05-15T18:31:47.141Z,3.87
2023-05-15T18:34:15.168Z,3.83
2023-05-15T18:36:44.549Z,2.90
2023-05-15T18:39:12.620Z,3.40
2023-05-15T18:41:40.608Z,2.57
2023-05-15T18:44:08.612Z,3.20
2023-05-15T18:46:36.610Z,3.70
2023-05-15T18:49:04.557Z,3.23
2023-05-15T18:51:32.520Z,3.37
2023-05-15T18:54:01.836Z,2.77
2023-05-15T18:56:29.782Z,3.33
2023-05-15T18:58:57.745Z,3.13
2023-05-15T19:01:25.723Z,2.63
2023-05-15T19:03:53.835Z,3.10
2023-05-15T19:06:21.792Z,2.90
2023-05-15T19:08:50.101Z,2.40
2023-05-15T19:11:19.489Z,2.47
2023-05-15T19:13:47.550Z,3.40
2023-05-15T19:16:15.615Z,2.43
2023-05-15T19:18:43.647Z,2.37
2023-05-15T19:21:11.803Z,2.10
2023-05-15T19:23:39.784Z,2.17
2023-05-15T19:26:07.740Z,2.30
2023-05-15T19:28:39.850Z,2.60
2023-05-15T19:31:14.033Z,3.00
2023-05-15T19:33:48.628Z,2.20
2023-05-15T19:36:17.966Z,2.60
2023-05-15T19:38:46.022Z,2.47
2023-05-15T19:41:14.700Z,2.27
2023-05-15T19:43:46.408Z,2.43
2023-05-15T19:46:14.587Z,2.50
2023-05-15T19:48:42.559Z,2.30
2023-05-15T19:51:10.721Z,2.40
2023-05-15T19:53:38.733Z,2.10
2023-05-15T19:56:07.424Z,2.77
2023-05-15T19:58:35.378Z,2.50
2023-05-15T20:01:06.377Z,2.40
2023-05-15T20:03:34.569Z,3.10
2023-05-15T20:06:03.273Z,2.93
2023-05-15T20:08:32.123Z,3.40
2023-05-15T20:11:00.172Z,3.23
2023-05-15T20:13:28.214Z,2.90
2023-05-15T20:15:57.606Z,3.03
2023-05-15T20:18:27.837Z,3.50
2023-05-15T20:20:55.788Z,3.10
2023-05-15T20:23:24.073Z,3.10
2023-05-15T20:25:52.576Z,3.70
2023-05-15T20:28:24.719Z,3.40
2023-05-15T20:30:52.766Z,3.30
2023-05-15T20:33:20.979Z,3.70
2023-05-15T20:35:51.331Z,3.10
2023-05-15T20:38:19.367Z,4.00
2023-05-15T20:40:47.334Z,3.23
2023-05-15T20:43:15.282Z,3.03
2023-05-15T20:45:43.346Z,3.83
2023-05-15T20:48:11.571Z,3.43
2023-05-15T20:50:39.860Z,3.57
2023-05-15T20:53:09.255Z,3.50
2023-05-15T20:55:37.386Z,3.50
2023-05-15T20:58:05.404Z,3.70
2023-05-15T21:00:33.411Z,4.00
2023-05-15T21:03:01.692Z,3.90
2023-05-15T21:05:29.721Z,4.13
2023-05-15T21:07:58.391Z,4.50
2023-05-15T21:10:27.904Z,4.10
2023-05-15T21:12:57.807Z,4.00
2023-05-15T21:15:27.123Z,4.50
2023-05-15T21:17:55.079Z,4.10
2023-05-15T21:20:23.108Z,4.40
2023-05-15T21:22:53.032Z,4.53
2023-05-15T21:25:21.459Z,4.43
2023-05-15T21:27:50.850Z,4.70
2023-05-15T21:30:18.924Z,4.87
2023-05-15T21:32:46.881Z,4.20
2023-05-15T21:35:14.882Z,4.87
2023-05-15T21:37:43.207Z,4.23
2023-05-15T21:40:12.453Z,4.67
2023-05-15T21:42:40.724Z,4.23
2023-05-15T21:45:10.869Z,4.83
2023-05-15T21:47:38.910Z,4.30
2023-05-15T21:50:07.752Z,3.57
2023-05-15T21:52:35.786Z,3.27
2023-05-15T21:55:04.005Z,3.47
2023-05-15T21:57:32.038Z,3.77
2023-05-15T22:00:00.153Z,2.73
2023-05-15T22:02:29.591Z,3.00
2023-05-15T22:04:57.558Z,3.10
2023-05-15T22:07:25.532Z,2.73
2023-05-15T22:09:53.737Z,2.40
2023-05-15T22:12:21.980Z,2.97
2023-05-15T22:14:58.240Z,2.30
2023-05-15T22:17:29.104Z,2.17
2023-05-15T22:20:07.112Z,2.77
2023-05-15T22:22:36.396Z,2.90
2023-05-15T22:25:04.773Z,2.40
2023-05-15T22:27:32.990Z,2.40
2023-05-15T22:30:01.100Z,3.13
2023-05-15T22:32:29.186Z,2.43
2023-05-15T22:34:58.810Z,2.43
2023-05-15T22:37:26.848Z,2.40
2023-05-15T22:39:54.824Z,2.67
2023-05-15T22:42:23.899Z,3.10
2023-05-15T22:44:51.997Z,2.20
2023-05-15T22:47:20.053Z,2.60
2023-05-15T22:49:48.102Z,2.50
2023-05-15T22:52:18.711Z,3.50
2023-05-15T22:54:46.839Z,2.90
2023-05-15T22:57:16.678Z,2.97
2023-05-15T22:59:44.743Z,2.70
2023-05-15T23:02:12.720Z,2.50
2023-05-15T23:04:40.682Z,2.23
2023-05-15T23:07:08.657Z,3.07
2023-05-15T23:09:37.982Z,2.67
2023-05-15T23:12:06.711Z,2.07
2023-05-15T23:14:35.319Z,2.20
2023-05-15T23:17:03.714Z,2.37
2023-05-15T23:19:31.920Z,2.70
2023-05-15T23:21:59.926Z,2.60
2023-05-15T23:24:28.192Z,2.57
2023-05-15T23:26:57.541Z,2.27
2023-05-15T23:29:25.613Z,1.93
2023-05-15T23:31:56.216Z,2.17
2023-05-15T23:34:24.188Z,1.80
2023-05-15T23:36:52.149Z,1.97
2023-05-15T23:39:20.081Z,2.47
2023-05-15T23:41:48.043Z,2.00
2023-05-15T23:44:17.326Z,1.90
2023-05-15T23:46:45.364Z,1.53
2023-05-15T23:49:13.354Z,1.40
2023-05-15T23:51:41.280Z,1.53
2023-05-15T23:54:09.286Z,1.63
2023-05-15T23:56:37.191Z,1.80
2023-05-15T23:59:05.217Z,1.60
